首页
METAR-TAF:

METAR-TAF

机场 :

卡昂, 法国

纬度: 49-11N, 经度: 000-27W, 海拔: 78米

当前天气观测

该预报发布于43分钟前的07:30 UTC
风速7节,风向西转西南
温度 8°C
湿度 93%
气压 1019 hPa
能见度10公里或以上
少量云层高于1200英尺
多云层高于5400英尺
阴天层高于7800英尺

METAR: LFRK 030730Z AUTO 25007KT 9999 FEW012 BKN054 OVC078 08/07 Q1019 NOSIG

时间: 10:13 (08:13 UTC)


TAF: 丢失

超过4000个机场的气象观测和天气预报(METAR&TAF报告)。

可查询的气象台以黄色和红色小点在地图上表示。

将鼠标移到小点上方,可查看气象台名称。

然后点击查看天气观测和预报。

如需切换地图:点击带黑十字的绿色按钮放大地图;点击带横线的绿色按钮缩小地图;或者点击绿色箭头查看邻近地区的地图。


METAR-TAF: